sensor_id;sensor_type;location;lat;lon;timestamp;pressure;altitude;pressure_sealevel;temperature;humidity
27202;BME280;14717;46.924;15.474;2023-05-28T00:02:23;98108.63;;;13.77;86.13
27202;BME280;14717;46.924;15.474;2023-05-28T00:04:49;98112.72;;;13.80;85.82
27202;BME280;14717;46.924;15.474;2023-05-28T00:07:14;98105.06;;;13.45;85.71
27202;BME280;14717;46.924;15.474;2023-05-28T00:09:41;98107.00;;;13.31;86.56
27202;BME280;14717;46.924;15.474;2023-05-28T00:12:07;98105.94;;;13.59;86.52
27202;BME280;14717;46.924;15.474;2023-05-28T00:14:33;98100.19;;;13.69;85.94
27202;BME280;14717;46.924;15.474;2023-05-28T00:16:58;98087.81;;;13.48;86.22
27202;BME280;14717;46.924;15.474;2023-05-28T00:19:24;98092.56;;;13.61;86.61
27202;BME280;14717;46.924;15.474;2023-05-28T00:21:49;98098.72;;;13.58;87.28
27202;BME280;14717;46.924;15.474;2023-05-28T00:24:14;98092.97;;;13.55;87.31
27202;BME280;14717;46.924;15.474;2023-05-28T00:26:40;98093.72;;;13.28;86.75
27202;BME280;14717;46.924;15.474;2023-05-28T00:29:05;98090.13;;;13.28;86.83
27202;BME280;14717;46.924;15.474;2023-05-28T00:31:30;98088.06;;;12.88;89.00
27202;BME280;14717;46.924;15.474;2023-05-28T00:33:56;98084.97;;;12.90;91.01
27202;BME280;14717;46.924;15.474;2023-05-28T00:36:21;98073.56;;;13.10;89.06
27202;BME280;14717;46.924;15.474;2023-05-28T00:38:47;98069.28;;;13.30;88.25
27202;BME280;14717;46.924;15.474;2023-05-28T00:41:13;98072.00;;;13.17;87.68
27202;BME280;14717;46.924;15.474;2023-05-28T00:43:38;98071.47;;;13.02;89.33
27202;BME280;14717;46.924;15.474;2023-05-28T00:46:05;98065.81;;;13.07;89.77
27202;BME280;14717;46.924;15.474;2023-05-28T00:48:31;98072.06;;;12.99;90.20
27202;BME280;14717;46.924;15.474;2023-05-28T00:50:59;98063.22;;;12.97;89.77
27202;BME280;14717;46.924;15.474;2023-05-28T00:53:25;98071.72;;;12.87;89.87
27202;BME280;14717;46.924;15.474;2023-05-28T00:55:51;98069.38;;;12.75;90.92
27202;BME280;14717;46.924;15.474;2023-05-28T00:58:17;98063.00;;;12.57;91.52
27202;BME280;14717;46.924;15.474;2023-05-28T01:00:45;98068.84;;;12.55;91.76
27202;BME280;14717;46.924;15.474;2023-05-28T01:03:11;98060.69;;;12.45;89.91
27202;BME280;14717;46.924;15.474;2023-05-28T01:05:36;98052.38;;;12.64;90.83
27202;BME280;14717;46.924;15.474;2023-05-28T01:08:02;98064.38;;;12.59;89.78
27202;BME280;14717;46.924;15.474;2023-05-28T01:10:30;98048.78;;;12.45;91.30
27202;BME280;14717;46.924;15.474;2023-05-28T01:12:56;98049.22;;;12.33;91.62
27202;BME280;14717;46.924;15.474;2023-05-28T01:15:24;98049.22;;;12.33;92.92
27202;BME280;14717;46.924;15.474;2023-05-28T01:17:52;98049.22;;;12.33;91.04
27202;BME280;14717;46.924;15.474;2023-05-28T01:20:22;98034.28;;;12.34;92.27
27202;BME280;14717;46.924;15.474;2023-05-28T01:22:52;98037.84;;;12.53;92.21
27202;BME280;14717;46.924;15.474;2023-05-28T01:25:22;98041.38;;;12.59;92.25
27202;BME280;14717;46.924;15.474;2023-05-28T01:27:48;98042.44;;;12.44;91.80
27202;BME280;14717;46.924;15.474;2023-05-28T01:30:13;98040.94;;;12.33;92.88
27202;BME280;14717;46.924;15.474;2023-05-28T01:32:39;98046.53;;;12.47;93.26
27202;BME280;14717;46.924;15.474;2023-05-28T01:35:05;98036.38;;;12.42;93.12
27202;BME280;14717;46.924;15.474;2023-05-28T01:37:31;98028.22;;;12.32;92.92
27202;BME280;14717;46.924;15.474;2023-05-28T01:39:59;98027.38;;;12.14;93.39
27202;BME280;14717;46.924;15.474;2023-05-28T01:42:28;98029.44;;;11.85;94.64
27202;BME280;14717;46.924;15.474;2023-05-28T01:44:55;98029.38;;;11.90;96.69
27202;BME280;14717;46.924;15.474;2023-05-28T01:47:21;98030.41;;;11.94;97.06
27202;BME280;14717;46.924;15.474;2023-05-28T01:49:47;98020.28;;;11.85;97.31
27202;BME280;14717;46.924;15.474;2023-05-28T01:52:13;98021.97;;;11.86;95.73
27202;BME280;14717;46.924;15.474;2023-05-28T01:54:39;98024.09;;;11.70;96.56
27202;BME280;14717;46.924;15.474;2023-05-28T01:57:05;98013.09;;;11.65;97.87
27202;BME280;14717;46.924;15.474;2023-05-28T01:59:30;98024.09;;;11.70;97.50
27202;BME280;14717;46.924;15.474;2023-05-28T02:01:56;98016.44;;;11.62;98.25
27202;BME280;14717;46.924;15.474;2023-05-28T02:04:21;98013.81;;;11.52;98.54
27202;BME280;14717;46.924;15.474;2023-05-28T02:06:47;98005.38;;;11.62;97.86
27202;BME280;14717;46.924;15.474;2023-05-28T02:09:12;98001.63;;;11.53;98.33
27202;BME280;14717;46.924;15.474;2023-05-28T02:11:37;98012.56;;;11.63;97.64
27202;BME280;14717;46.924;15.474;2023-05-28T02:14:03;98017.50;;;11.66;95.70
27202;BME280;14717;46.924;15.474;2023-05-28T02:16:30;98020.81;;;11.68;97.07
27202;BME280;14717;46.924;15.474;2023-05-28T02:18:56;98020.56;;;11.88;97.89
27202;BME280;14717;46.924;15.474;2023-05-28T02:21:21;98013.50;;;11.77;96.79
27202;BME280;14717;46.924;15.474;2023-05-28T02:23:48;98009.41;;;11.93;96.59
27202;BME280;14717;46.924;15.474;2023-05-28T02:26:14;98008.09;;;11.67;95.52
27202;BME280;14717;46.924;15.474;2023-05-28T02:28:41;98014.44;;;11.68;96.67
27202;BME280;14717;46.924;15.474;2023-05-28T02:31:09;98003.63;;;11.48;97.18
27202;BME280;14717;46.924;15.474;2023-05-28T02:33:35;98005.38;;;11.62;96.86
27202;BME280;14717;46.924;15.474;2023-05-28T02:36:00;97998.53;;;11.55;96.58
27202;BME280;14717;46.924;15.474;2023-05-28T02:38:26;98000.53;;;11.73;96.46
27202;BME280;14717;46.924;15.474;2023-05-28T02:40:51;98004.16;;;11.45;96.93
27202;BME280;14717;46.924;15.474;2023-05-28T02:43:16;98001.16;;;11.47;97.24
27202;BME280;14717;46.924;15.474;2023-05-28T02:45:42;97994.13;;;11.31;98.82
27202;BME280;14717;46.924;15.474;2023-05-28T02:48:07;97994.72;;;11.28;98.88
27202;BME280;14717;46.924;15.474;2023-05-28T02:50:33;97994.94;;;11.31;98.71
27202;BME280;14717;46.924;15.474;2023-05-28T02:52:58;97997.94;;;11.11;99.16
27202;BME280;14717;46.924;15.474;2023-05-28T02:55:23;98004.34;;;11.07;100.00
27202;BME280;14717;46.924;15.474;2023-05-28T02:57:49;98003.88;;;11.23;100.00
27202;BME280;14717;46.924;15.474;2023-05-28T03:00:14;98003.25;;;11.54;100.00
27202;BME280;14717;46.924;15.474;2023-05-28T03:02:40;98003.47;;;11.35;98.14
27202;BME280;14717;46.924;15.474;2023-05-28T03:05:05;98007.50;;;11.19;98.95
27202;BME280;14717;46.924;15.474;2023-05-28T03:07:31;97997.34;;;11.38;99.89
27202;BME280;14717;46.924;15.474;2023-05-28T03:09:59;98010.69;;;11.59;99.30
27202;BME280;14717;46.924;15.474;2023-05-28T03:12:24;98002.44;;;11.31;98.35
27202;BME280;14717;46.924;15.474;2023-05-28T03:14:50;98003.00;;;11.28;99.09
27202;BME280;14717;46.924;15.474;2023-05-28T03:17:15;98003.94;;;11.42;99.01
27202;BME280;14717;46.924;15.474;2023-05-28T03:19:41;98005.81;;;11.23;97.67
27202;BME280;14717;46.924;15.474;2023-05-28T03:22:06;98008.06;;;11.21;98.59
27202;BME280;14717;46.924;15.474;2023-05-28T03:24:31;98005.66;;;11.38;98.63
27202;BME280;14717;46.924;15.474;2023-05-28T03:26:58;98009.13;;;11.25;97.94
27202;BME280;14717;46.924;15.474;2023-05-28T03:29:24;98010.66;;;11.12;98.37
27202;BME280;14717;46.924;15.474;2023-05-28T03:31:50;98007.03;;;11.12;98.37
27202;BME280;14717;46.924;15.474;2023-05-28T03:34:15;98004.56;;;11.39;98.05
27202;BME280;14717;46.924;15.474;2023-05-28T03:36:40;98012.69;;;11.53;96.62
27202;BME280;14717;46.924;15.474;2023-05-28T03:39:10;97997.97;;;11.58;95.68
27202;BME280;14717;46.924;15.474;2023-05-28T03:41:36;98019.03;;;11.31;96.66
27202;BME280;14717;46.924;15.474;2023-05-28T03:44:02;98012.22;;;11.18;97.74
27202;BME280;14717;46.924;15.474;2023-05-28T03:46:28;98011.06;;;11.24;99.57
27202;BME280;14717;46.924;15.474;2023-05-28T03:48:53;98002.03;;;11.14;99.24
27202;BME280;14717;46.924;15.474;2023-05-28T03:51:19;98006.00;;;11.08;100.00
27202;BME280;14717;46.924;15.474;2023-05-28T03:53:44;98008.06;;;11.21;100.00
27202;BME280;14717;46.924;15.474;2023-05-28T03:56:10;98010.28;;;11.19;99.64
27202;BME280;14717;46.924;15.474;2023-05-28T03:58:35;98009.19;;;11.20;100.00
27202;BME280;14717;46.924;15.474;2023-05-28T04:01:00;98002.59;;;11.16;100.00
27202;BME280;14717;46.924;15.474;2023-05-28T04:03:26;97998.13;;;11.20;100.00
27202;BME280;14717;46.924;15.474;2023-05-28T04:05:51;98000.31;;;11.23;100.00
27202;BME280;14717;46.924;15.474;2023-05-28T04:08:17;97996.06;;;11.30;100.00
27202;BME280;14717;46.924;15.474;2023-05-28T04:10:43;97996.28;;;11.34;100.00
27202;BME280;14717;46.924;15.474;2023-05-28T04:13:08;97999.59;;;11.36;100.00
27202;BME280;14717;46.924;15.474;2023-05-28T04:15:33;97995.94;;;11.40;100.00
27202;BME280;14717;46.924;15.474;2023-05-28T04:17:59;97997.31;;;11.43;100.00
27202;BME280;14717;46.924;15.474;2023-05-28T04:20:25;98010.91;;;11.62;100.00
27202;BME280;14717;46.924;15.474;2023-05-28T04:22:50;98003.25;;;11.96;100.00
27202;BME280;14717;46.924;15.474;2023-05-28T04:25:17;98011.28;;;12.16;100.00
27202;BME280;14717;46.924;15.474;2023-05-28T04:27:44;98010.00;;;12.27;99.59
27202;BME280;14717;46.924;15.474;2023-05-28T04:30:10;98011.44;;;12.42;98.93
27202;BME280;14717;46.924;15.474;2023-05-28T04:32:36;98007.75;;;12.47;98.02
27202;BME280;14717;46.924;15.474;2023-05-28T04:35:07;98011.78;;;12.54;96.88
27202;BME280;14717;46.924;15.474;2023-05-28T04:37:36;98002.03;;;12.57;96.72
27202;BME280;14717;46.924;15.474;2023-05-28T04:40:05;97996.94;;;12.64;97.13
27202;BME280;14717;46.924;15.474;2023-05-28T04:42:31;98013.13;;;12.75;95.03
27202;BME280;14717;46.924;15.474;2023-05-28T04:44:56;98012.97;;;12.85;96.12
27202;BME280;14717;46.924;15.474;2023-05-28T04:47:23;98007.25;;;12.95;96.80
27202;BME280;14717;46.924;15.474;2023-05-28T04:49:49;98013.22;;;13.02;93.94
27202;BME280;14717;46.924;15.474;2023-05-28T04:52:14;98010.78;;;13.14;93.91
27202;BME280;14717;46.924;15.474;2023-05-28T04:54:41;98010.06;;;13.21;92.27
27202;BME280;14717;46.924;15.474;2023-05-28T04:57:07;98007.72;;;13.28;90.44
27202;BME280;14717;46.924;15.474;2023-05-28T04:59:32;98007.81;;;13.23;91.37
27202;BME280;14717;46.924;15.474;2023-05-28T05:01:59;98002.47;;;13.27;91.60
27202;BME280;14717;46.924;15.474;2023-05-28T05:04:24;98008.97;;;13.36;90.23
27202;BME280;14717;46.924;15.474;2023-05-28T05:06:50;98008.13;;;13.49;91.30
27202;BME280;14717;46.924;15.474;2023-05-28T05:09:15;98009.28;;;13.61;88.06
27202;BME280;14717;46.924;15.474;2023-05-28T05:11:41;98013.16;;;13.73;88.00
27202;BME280;14717;46.924;15.474;2023-05-28T05:14:06;98013.25;;;13.82;85.79
27202;BME280;14717;46.924;15.474;2023-05-28T05:16:31;98008.53;;;13.96;85.18
27202;BME280;14717;46.924;15.474;2023-05-28T05:18:57;98017.78;;;14.18;84.24
27202;BME280;14717;46.924;15.474;2023-05-28T05:21:24;98020.22;;;14.33;82.63
27202;BME280;14717;46.924;15.474;2023-05-28T05:23:50;98020.28;;;14.54;83.77
27202;BME280;14717;46.924;15.474;2023-05-28T05:26:15;98026.66;;;14.55;81.44
27202;BME280;14717;46.924;15.474;2023-05-28T05:28:44;98017.88;;;14.61;80.54
27202;BME280;14717;46.924;15.474;2023-05-28T05:31:09;98026.47;;;14.73;79.73
27202;BME280;14717;46.924;15.474;2023-05-28T05:33:39;98011.38;;;14.88;79.44
27202;BME280;14717;46.924;15.474;2023-05-28T05:36:05;98018.84;;;15.00;77.93
27202;BME280;14717;46.924;15.474;2023-05-28T05:38:31;98025.13;;;15.14;78.25
27202;BME280;14717;46.924;15.474;2023-05-28T05:40:56;98015.91;;;15.27;76.00
27202;BME280;14717;46.924;15.474;2023-05-28T05:43:22;98025.00;;;15.41;75.42
27202;BME280;14717;46.924;15.474;2023-05-28T05:45:47;98025.88;;;15.50;76.21
27202;BME280;14717;46.924;15.474;2023-05-28T05:48:13;98025.91;;;15.58;75.02
27202;BME280;14717;46.924;15.474;2023-05-28T05:50:49;98029.72;;;15.71;74.23
27202;BME280;14717;46.924;15.474;2023-05-28T05:53:15;98031.59;;;15.45;73.66
27202;BME280;14717;46.924;15.474;2023-05-28T05:55:41;98024.81;;;15.68;75.91
27202;BME280;14717;46.924;15.474;2023-05-28T05:58:06;98025.97;;;15.75;73.11
27202;BME280;14717;46.924;15.474;2023-05-28T06:00:31;98025.56;;;15.98;74.36
27202;BME280;14717;46.924;15.474;2023-05-28T06:02:56;98030.38;;;16.15;74.23
27202;BME280;14717;46.924;15.474;2023-05-28T06:05:22;98032.41;;;16.31;72.20
27202;BME280;14717;46.924;15.474;2023-05-28T06:07:47;98026.19;;;16.34;72.41
27202;BME280;14717;46.924;15.474;2023-05-28T06:10:12;98029.00;;;16.51;72.60
27202;BME280;14717;46.924;15.474;2023-05-28T06:12:38;98017.03;;;16.59;73.50
27202;BME280;14717;46.924;15.474;2023-05-28T06:15:03;98020.63;;;16.76;69.91
27202;BME280;14717;46.924;15.474;2023-05-28T06:17:29;98019.16;;;16.78;69.67
27202;BME280;14717;46.924;15.474;2023-05-28T06:19:54;98019.47;;;17.02;69.89
27202;BME280;14717;46.924;15.474;2023-05-28T06:22:20;98017.19;;;17.04;68.95
27202;BME280;14717;46.924;15.474;2023-05-28T06:24:45;98015.84;;;17.27;68.08
27202;BME280;14717;46.924;15.474;2023-05-28T06:27:11;98022.44;;;17.31;68.46
27202;BME280;14717;46.924;15.474;2023-05-28T06:29:37;98029.78;;;17.52;68.37
27202;BME280;14717;46.924;15.474;2023-05-28T06:32:02;98024.16;;;17.60;68.55
27202;BME280;14717;46.924;15.474;2023-05-28T06:34:28;98010.25;;;17.81;67.86
27202;BME280;14717;46.924;15.474;2023-05-28T06:36:54;98025.22;;;17.85;66.52
27202;BME280;14717;46.924;15.474;2023-05-28T06:39:20;98019.72;;;17.96;66.21
27202;BME280;14717;46.924;15.474;2023-05-28T06:41:45;98014.47;;;17.95;66.13
27202;BME280;14717;46.924;15.474;2023-05-28T06:44:10;98022.94;;;18.15;65.81
27202;BME280;14717;46.924;15.474;2023-05-28T06:46:35;98016.69;;;18.18;66.58
27202;BME280;14717;46.924;15.474;2023-05-28T06:49:01;98021.03;;;18.36;65.26
27202;BME280;14717;46.924;15.474;2023-05-28T06:51:26;98023.97;;;18.39;64.86
27202;BME280;14717;46.924;15.474;2023-05-28T06:53:51;98020.44;;;18.51;65.43
27202;BME280;14717;46.924;15.474;2023-05-28T06:56:17;98016.06;;;18.82;64.52
27202;BME280;14717;46.924;15.474;2023-05-28T06:58:42;98025.75;;;18.84;63.83
27202;BME280;14717;46.924;15.474;2023-05-28T07:01:07;98025.00;;;18.96;63.40
27202;BME280;14717;46.924;15.474;2023-05-28T07:03:33;98031.63;;;18.71;61.35
27202;BME280;14717;46.924;15.474;2023-05-28T07:06:00;98022.63;;;18.86;62.30
27202;BME280;14717;46.924;15.474;2023-05-28T07:08:26;98019.50;;;19.08;62.14
27202;BME280;14717;46.924;15.474;2023-05-28T07:10:51;98031.66;;;19.12;60.64
27202;BME280;14717;46.924;15.474;2023-05-28T07:13:17;98025.50;;;19.18;60.23
27202;BME280;14717;46.924;15.474;2023-05-28T07:15:42;98020.66;;;19.39;59.45
27202;BME280;14717;46.924;15.474;2023-05-28T07:18:07;98023.22;;;19.64;60.15
27202;BME280;14717;46.924;15.474;2023-05-28T07:20:33;98028.28;;;19.50;58.48
27202;BME280;14717;46.924;15.474;2023-05-28T07:22:58;98021.97;;;19.41;57.97
27202;BME280;14717;46.924;15.474;2023-05-28T07:25:23;98017.06;;;19.50;56.53
27202;BME280;14717;46.924;15.474;2023-05-28T07:27:49;98020.19;;;19.69;54.15
27202;BME280;14717;46.924;15.474;2023-05-28T07:30:14;98022.63;;;19.70;53.07
27202;BME280;14717;46.924;15.474;2023-05-28T07:32:41;98019.38;;;19.36;54.69
27202;BME280;14717;46.924;15.474;2023-05-28T07:35:07;98020.75;;;19.63;53.41
27202;BME280;14717;46.924;15.474;2023-05-28T07:37:32;98020.66;;;19.71;52.95
27202;BME280;14717;46.924;15.474;2023-05-28T07:39:58;98016.28;;;20.06;54.36
27202;BME280;14717;46.924;15.474;2023-05-28T07:42:23;98013.00;;;20.27;54.31
27202;BME280;14717;46.924;15.474;2023-05-28T07:44:49;98012.31;;;20.18;53.24
27202;BME280;14717;46.924;15.474;2023-05-28T07:47:14;98016.03;;;20.22;52.40
27202;BME280;14717;46.924;15.474;2023-05-28T07:49:40;98006.94;;;20.25;52.40
27202;BME280;14717;46.924;15.474;2023-05-28T07:52:06;98002.34;;;20.68;51.87
27202;BME280;14717;46.924;15.474;2023-05-28T07:54:31;98007.84;;;20.65;50.33
27202;BME280;14717;46.924;15.474;2023-05-28T07:56:56;98012.41;;;20.69;50.42
27202;BME280;14717;46.924;15.474;2023-05-28T07:59:22;98000.63;;;20.28;49.76
27202;BME280;14717;46.924;15.474;2023-05-28T08:01:48;98003.88;;;20.30;50.28
27202;BME280;14717;46.924;15.474;2023-05-28T08:04:13;97991.13;;;20.45;49.42
27202;BME280;14717;46.924;15.474;2023-05-28T08:06:38;97990.16;;;20.76;50.21
27202;BME280;14717;46.924;15.474;2023-05-28T08:09:04;97993.97;;;20.95;49.63
27202;BME280;14717;46.924;15.474;2023-05-28T08:11:30;97991.81;;;21.04;49.01
27202;BME280;14717;46.924;15.474;2023-05-28T08:13:55;97992.06;;;20.99;50.06
27202;BME280;14717;46.924;15.474;2023-05-28T08:16:21;97990.19;;;21.31;47.90
27202;BME280;14717;46.924;15.474;2023-05-28T08:18:46;97998.66;;;21.58;45.96
27202;BME280;14717;46.924;15.474;2023-05-28T08:21:11;97986.19;;;21.59;49.38
27202;BME280;14717;46.924;15.474;2023-05-28T08:23:37;97983.97;;;21.64;47.92
27202;BME280;14717;46.924;15.474;2023-05-28T08:26:02;97994.59;;;21.71;46.78
27202;BME280;14717;46.924;15.474;2023-05-28T08:28:28;97985.41;;;21.74;46.11
27202;BME280;14717;46.924;15.474;2023-05-28T08:30:54;97983.09;;;21.48;50.22
27202;BME280;14717;46.924;15.474;2023-05-28T08:33:19;97981.19;;;21.25;48.95
27202;BME280;14717;46.924;15.474;2023-05-28T08:35:45;97977.97;;;21.66;47.62
27202;BME280;14717;46.924;15.474;2023-05-28T08:38:10;97969.44;;;21.78;49.07
27202;BME280;14717;46.924;15.474;2023-05-28T08:40:40;97976.31;;;21.65;48.99
27202;BME280;14717;46.924;15.474;2023-05-28T08:43:07;97967.78;;;21.92;49.20
27202;BME280;14717;46.924;15.474;2023-05-28T08:45:34;97970.69;;;21.80;45.69
27202;BME280;14717;46.924;15.474;2023-05-28T08:48:00;97971.00;;;21.90;46.53
27202;BME280;14717;46.924;15.474;2023-05-28T08:50:27;97970.69;;;21.80;49.39
27202;BME280;14717;46.924;15.474;2023-05-28T08:52:53;97966.09;;;21.87;46.12
27202;BME280;14717;46.924;15.474;2023-05-28T08:55:18;97965.38;;;21.90;45.47
27202;BME280;14717;46.924;15.474;2023-05-28T08:57:44;97959.38;;;22.23;46.13
27202;BME280;14717;46.924;15.474;2023-05-28T09:00:11;97959.34;;;22.38;45.92
27202;BME280;14717;46.924;15.474;2023-05-28T09:02:38;97959.00;;;22.24;47.35
27202;BME280;14717;46.924;15.474;2023-05-28T09:05:04;97957.53;;;22.64;45.26
27202;BME280;14717;46.924;15.474;2023-05-28T09:07:29;97961.94;;;22.62;44.95
27202;BME280;14717;46.924;15.474;2023-05-28T09:09:55;97961.34;;;22.71;44.65
27202;BME280;14717;46.924;15.474;2023-05-28T09:12:22;97958.97;;;22.73;46.08
27202;BME280;14717;46.924;15.474;2023-05-28T09:14:50;97955.44;;;22.76;43.96
27202;BME280;14717;46.924;15.474;2023-05-28T09:17:16;97933.47;;;22.66;46.70
27202;BME280;14717;46.924;15.474;2023-05-28T09:19:51;97932.13;;;22.61;48.21
27202;BME280;14717;46.924;15.474;2023-05-28T09:22:17;97934.94;;;22.61;45.12
27202;BME280;14717;46.924;15.474;2023-05-28T09:24:48;97930.56;;;22.63;44.10
27202;BME280;14717;46.924;15.474;2023-05-28T09:27:14;97933.75;;;22.96;43.87
27202;BME280;14717;46.924;15.474;2023-05-28T09:29:42;97925.94;;;23.08;41.97
27202;BME280;14717;46.924;15.474;2023-05-28T09:32:07;97925.25;;;23.33;42.90
27202;BME280;14717;46.924;15.474;2023-05-28T09:34:34;97923.59;;;22.91;42.74
27202;BME280;14717;46.924;15.474;2023-05-28T09:37:00;97918.50;;;22.81;45.52
27202;BME280;14717;46.924;15.474;2023-05-28T09:39:26;97914.09;;;22.99;43.55
27202;BME280;14717;46.924;15.474;2023-05-28T09:42:00;97921.84;;;22.68;46.36
27202;BME280;14717;46.924;15.474;2023-05-28T09:44:36;97924.72;;;22.71;44.42
27202;BME280;14717;46.924;15.474;2023-05-28T09:47:12;97915.72;;;22.47;44.77
27202;BME280;14717;46.924;15.474;2023-05-28T09:49:38;97923.94;;;22.56;45.95
27202;BME280;14717;46.924;15.474;2023-05-28T09:52:04;97916.28;;;22.71;43.27
27202;BME280;14717;46.924;15.474;2023-05-28T09:54:32;97920.81;;;23.32;42.02
27202;BME280;14717;46.924;15.474;2023-05-28T09:57:02;97914.59;;;23.64;41.10
27202;BME280;14717;46.924;15.474;2023-05-28T09:59:31;97919.34;;;23.60;41.12
27202;BME280;14717;46.924;15.474;2023-05-28T10:02:15;97898.94;;;23.67;41.16
27202;BME280;14717;46.924;15.474;2023-05-28T10:04:45;97901.44;;;23.72;40.16
27202;BME280;14717;46.924;15.474;2023-05-28T10:07:14;97901.09;;;23.99;40.98
27202;BME280;14717;46.924;15.474;2023-05-28T10:09:41;97902.09;;;24.10;38.46
27202;BME280;14717;46.924;15.474;2023-05-28T10:12:15;97902.19;;;24.39;41.90
27202;BME280;14717;46.924;15.474;2023-05-28T10:14:42;97906.75;;;24.25;42.50
27202;BME280;14717;46.924;15.474;2023-05-28T10:17:08;97890.44;;;23.89;39.20
27202;BME280;14717;46.924;15.474;2023-05-28T10:19:34;97890.06;;;23.91;38.89
27202;BME280;14717;46.924;15.474;2023-05-28T10:22:00;97896.53;;;23.69;40.63
27202;BME280;14717;46.924;15.474;2023-05-28T10:24:26;97892.94;;;23.94;43.37
27202;BME280;14717;46.924;15.474;2023-05-28T10:26:53;97894.91;;;23.90;43.59
27202;BME280;14717;46.924;15.474;2023-05-28T10:29:18;97890.16;;;23.72;40.97
27202;BME280;14717;46.924;15.474;2023-05-28T10:31:44;97888.75;;;24.10;38.99
27202;BME280;14717;46.924;15.474;2023-05-28T10:34:16;97889.81;;;24.25;38.45
27202;BME280;14717;46.924;15.474;2023-05-28T10:36:49;97886.88;;;24.18;40.89
27202;BME280;14717;46.924;15.474;2023-05-28T10:39:16;97889.34;;;24.45;39.48
27202;BME280;14717;46.924;15.474;2023-05-28T10:41:41;97887.25;;;24.16;39.46
27202;BME280;14717;46.924;15.474;2023-05-28T10:44:07;97881.50;;;24.09;37.21
27202;BME280;14717;46.924;15.474;2023-05-28T10:46:39;97873.53;;;24.15;38.03
27202;BME280;14717;46.924;15.474;2023-05-28T10:49:15;97873.47;;;23.63;38.47
27202;BME280;14717;46.924;15.474;2023-05-28T10:52:01;97879.66;;;24.20;41.39
27202;BME280;14717;46.924;15.474;2023-05-28T11:02:08;97880.28;;;23.85;38.81
27202;BME280;14717;46.924;15.474;2023-05-28T11:04:35;97876.38;;;24.40;40.90
27202;BME280;14717;46.924;15.474;2023-05-28T11:07:01;97871.81;;;24.10;44.86
27202;BME280;14717;46.924;15.474;2023-05-28T11:09:27;97867.47;;;24.39;43.01
27202;BME280;14717;46.924;15.474;2023-05-28T11:11:53;97868.97;;;24.58;39.63
27202;BME280;14717;46.924;15.474;2023-05-28T11:14:18;97867.41;;;24.93;40.20
27202;BME280;14717;46.924;15.474;2023-05-28T11:16:44;97867.84;;;24.66;39.49
27202;BME280;14717;46.924;15.474;2023-05-28T11:19:09;97862.81;;;25.11;38.89
27202;BME280;14717;46.924;15.474;2023-05-28T11:21:54;97856.94;;;25.30;38.83
27202;BME280;14717;46.924;15.474;2023-05-28T11:24:21;97854.94;;;25.30;37.77
27202;BME280;14717;46.924;15.474;2023-05-28T11:26:46;97857.41;;;24.99;39.24
27202;BME280;14717;46.924;15.474;2023-05-28T11:29:12;97860.44;;;24.29;39.91
27202;BME280;14717;46.924;15.474;2023-05-28T11:31:42;97851.69;;;24.12;40.32
27202;BME280;14717;46.924;15.474;2023-05-28T11:34:08;97855.19;;;24.86;41.09
27202;BME280;14717;46.924;15.474;2023-05-28T11:36:40;97851.03;;;24.77;42.34
27202;BME280;14717;46.924;15.474;2023-05-28T11:39:06;97847.38;;;25.05;41.36
27202;BME280;14717;46.924;15.474;2023-05-28T11:41:32;97839.78;;;24.80;41.69
27202;BME280;14717;46.924;15.474;2023-05-28T11:43:58;97852.34;;;24.53;42.14
27202;BME280;14717;46.924;15.474;2023-05-28T11:46:24;97840.50;;;24.44;40.44
27202;BME280;14717;46.924;15.474;2023-05-28T11:48:49;97842.59;;;25.09;40.45
27202;BME280;14717;46.924;15.474;2023-05-28T11:51:18;97833.66;;;25.47;39.51
27202;BME280;14717;46.924;15.474;2023-05-28T11:53:44;97828.81;;;25.87;38.98
27202;BME280;14717;46.924;15.474;2023-05-28T11:56:10;97837.75;;;25.92;40.15
27202;BME280;14717;46.924;15.474;2023-05-28T11:58:36;97839.63;;;25.35;40.06
27202;BME280;14717;46.924;15.474;2023-05-28T12:01:06;97835.69;;;25.07;39.94
27202;BME280;14717;46.924;15.474;2023-05-28T12:03:32;97832.84;;;25.46;38.66
27202;BME280;14717;46.924;15.474;2023-05-28T12:05:57;97834.78;;;25.75;41.01
27202;BME280;14717;46.924;15.474;2023-05-28T12:08:23;97832.25;;;25.67;40.89
27202;BME280;14717;46.924;15.474;2023-05-28T12:10:48;97826.47;;;25.99;38.58
27202;BME280;14717;46.924;15.474;2023-05-28T12:13:14;97826.00;;;25.90;39.97
27202;BME280;14717;46.924;15.474;2023-05-28T12:15:41;97824.00;;;25.51;38.26
27202;BME280;14717;46.924;15.474;2023-05-28T12:18:06;97820.28;;;25.80;38.73
27202;BME280;14717;46.924;15.474;2023-05-28T12:20:40;97820.53;;;25.65;40.10
27202;BME280;14717;46.924;15.474;2023-05-28T12:23:10;97817.84;;;25.39;40.67
27202;BME280;14717;46.924;15.474;2023-05-28T12:28:08;97813.97;;;25.57;38.84
27202;BME280;14717;46.924;15.474;2023-05-28T12:30:34;97808.72;;;25.59;39.86
27202;BME280;14717;46.924;15.474;2023-05-28T12:32:59;97815.94;;;25.53;38.08
27202;BME280;14717;46.924;15.474;2023-05-28T12:35:25;97817.66;;;25.22;41.27
27202;BME280;14717;46.924;15.474;2023-05-28T12:37:50;97809.03;;;25.47;41.83
27202;BME280;14717;46.924;15.474;2023-05-28T12:40:16;97807.59;;;25.64;37.85
27202;BME280;14717;46.924;15.474;2023-05-28T12:42:42;97800.94;;;25.92;38.16
27202;BME280;14717;46.924;15.474;2023-05-28T12:45:07;97812.00;;;25.61;39.70
27202;BME280;14717;46.924;15.474;2023-05-28T12:47:33;97805.19;;;25.69;38.02
27202;BME280;14717;46.924;15.474;2023-05-28T12:49:58;97803.81;;;25.99;37.54
27202;BME280;14717;46.924;15.474;2023-05-28T12:52:24;97801.50;;;26.12;37.81
27202;BME280;14717;46.924;15.474;2023-05-28T12:54:49;97804.88;;;25.81;37.29
27202;BME280;14717;46.924;15.474;2023-05-28T12:57:15;97796.59;;;26.09;37.74